sensor_id;sensor_type;location;lat;lon;timestamp;P1;durP1;ratioP1;P2;durP2;ratioP2
63016;SDS011;50274;45.640;11.756;2024-01-15T00:01:08;65.93;;;36.42;;
63016;SDS011;50274;45.640;11.756;2024-01-15T00:03:33;66.03;;;34.83;;
63016;SDS011;50274;45.640;11.756;2024-01-15T00:05:59;64.65;;;34.70;;
63016;SDS011;50274;45.640;11.756;2024-01-15T00:08:25;60.95;;;32.50;;
63016;SDS011;50274;45.640;11.756;2024-01-15T00:10:51;61.77;;;33.43;;
63016;SDS011;50274;45.640;11.756;2024-01-15T00:13:17;64.20;;;34.72;;
63016;SDS011;50274;45.640;11.756;2024-01-15T00:15:43;67.13;;;35.77;;
63016;SDS011;50274;45.640;11.756;2024-01-15T00:18:08;58.23;;;33.47;;
63016;SDS011;50274;45.640;11.756;2024-01-15T00:20:34;67.97;;;34.97;;
63016;SDS011;50274;45.640;11.756;2024-01-15T00:23:00;65.60;;;33.60;;
63016;SDS011;50274;45.640;11.756;2024-01-15T00:25:26;63.55;;;34.40;;
63016;SDS011;50274;45.640;11.756;2024-01-15T00:27:52;63.35;;;33.80;;
63016;SDS011;50274;45.640;11.756;2024-01-15T00:30:17;67.13;;;36.20;;
63016;SDS011;50274;45.640;11.756;2024-01-15T00:32:43;65.03;;;35.05;;
63016;SDS011;50274;45.640;11.756;2024-01-15T00:35:09;66.37;;;34.87;;
63016;SDS011;50274;45.640;11.756;2024-01-15T00:37:35;64.03;;;34.33;;
63016;SDS011;50274;45.640;11.756;2024-01-15T00:40:01;62.35;;;34.35;;
63016;SDS011;50274;45.640;11.756;2024-01-15T00:42:27;65.55;;;35.15;;
63016;SDS011;50274;45.640;11.756;2024-01-15T00:44:53;67.03;;;34.33;;
63016;SDS011;50274;45.640;11.756;2024-01-15T00:47:19;61.88;;;35.25;;
63016;SDS011;50274;45.640;11.756;2024-01-15T00:49:45;63.55;;;34.92;;
63016;SDS011;50274;45.640;11.756;2024-01-15T00:52:11;60.20;;;33.33;;
63016;SDS011;50274;45.640;11.756;2024-01-15T00:54:36;58.67;;;34.28;;
63016;SDS011;50274;45.640;11.756;2024-01-15T00:57:03;66.57;;;36.22;;
63016;SDS011;50274;45.640;11.756;2024-01-15T00:59:29;72.47;;;40.38;;
63016;SDS011;50274;45.640;11.756;2024-01-15T01:01:54;61.47;;;33.60;;
63016;SDS011;50274;45.640;11.756;2024-01-15T01:04:20;62.42;;;34.47;;
63016;SDS011;50274;45.640;11.756;2024-01-15T01:06:46;66.23;;;35.43;;
63016;SDS011;50274;45.640;11.756;2024-01-15T01:09:12;71.82;;;37.45;;
63016;SDS011;50274;45.640;11.756;2024-01-15T01:11:38;65.75;;;35.17;;
63016;SDS011;50274;45.640;11.756;2024-01-15T01:14:04;67.13;;;36.40;;
63016;SDS011;50274;45.640;11.756;2024-01-15T01:16:30;64.97;;;35.85;;
63016;SDS011;50274;45.640;11.756;2024-01-15T01:18:56;63.65;;;34.40;;
63016;SDS011;50274;45.640;11.756;2024-01-15T01:21:22;64.43;;;33.38;;
63016;SDS011;50274;45.640;11.756;2024-01-15T01:23:48;58.90;;;32.75;;
63016;SDS011;50274;45.640;11.756;2024-01-15T01:26:17;66.35;;;36.60;;
63016;SDS011;50274;45.640;11.756;2024-01-15T01:28:43;59.23;;;33.77;;
63016;SDS011;50274;45.640;11.756;2024-01-15T01:31:08;65.00;;;33.65;;
63016;SDS011;50274;45.640;11.756;2024-01-15T01:33:34;60.35;;;34.05;;
63016;SDS011;50274;45.640;11.756;2024-01-15T01:36:00;60.07;;;33.53;;
63016;SDS011;50274;45.640;11.756;2024-01-15T01:38:26;57.28;;;34.30;;
63016;SDS011;50274;45.640;11.756;2024-01-15T01:40:51;59.20;;;32.77;;
63016;SDS011;50274;45.640;11.756;2024-01-15T01:43:17;66.72;;;35.97;;
63016;SDS011;50274;45.640;11.756;2024-01-15T01:45:43;55.35;;;31.25;;
63016;SDS011;50274;45.640;11.756;2024-01-15T01:48:09;61.73;;;32.53;;
63016;SDS011;50274;45.640;11.756;2024-01-15T01:50:35;61.40;;;33.88;;
63016;SDS011;50274;45.640;11.756;2024-01-15T01:53:01;64.93;;;35.00;;
63016;SDS011;50274;45.640;11.756;2024-01-15T01:55:29;59.40;;;34.13;;
63016;SDS011;50274;45.640;11.756;2024-01-15T01:57:56;60.70;;;32.90;;
63016;SDS011;50274;45.640;11.756;2024-01-15T02:00:22;60.63;;;33.55;;
63016;SDS011;50274;45.640;11.756;2024-01-15T02:02:48;56.95;;;33.20;;
63016;SDS011;50274;45.640;11.756;2024-01-15T02:05:14;63.83;;;35.83;;
63016;SDS011;50274;45.640;11.756;2024-01-15T02:07:44;55.30;;;33.20;;
63016;SDS011;50274;45.640;11.756;2024-01-15T02:10:10;64.35;;;35.20;;
63016;SDS011;50274;45.640;11.756;2024-01-15T02:12:36;64.10;;;35.67;;
63016;SDS011;50274;45.640;11.756;2024-01-15T02:15:02;63.40;;;33.90;;
63016;SDS011;50274;45.640;11.756;2024-01-15T02:17:28;60.53;;;33.78;;
63016;SDS011;50274;45.640;11.756;2024-01-15T02:19:53;55.65;;;31.55;;
63016;SDS011;50274;45.640;11.756;2024-01-15T02:22:19;63.87;;;33.50;;
63016;SDS011;50274;45.640;11.756;2024-01-15T02:24:45;58.33;;;33.30;;
63016;SDS011;50274;45.640;11.756;2024-01-15T02:27:11;58.33;;;34.03;;
63016;SDS011;50274;45.640;11.756;2024-01-15T02:29:37;56.08;;;32.15;;
63016;SDS011;50274;45.640;11.756;2024-01-15T02:32:06;57.78;;;32.05;;
63016;SDS011;50274;45.640;11.756;2024-01-15T02:34:33;60.47;;;34.25;;
63016;SDS011;50274;45.640;11.756;2024-01-15T02:36:59;57.07;;;31.60;;
63016;SDS011;50274;45.640;11.756;2024-01-15T02:39:25;58.08;;;30.95;;
63016;SDS011;50274;45.640;11.756;2024-01-15T02:41:51;55.17;;;30.38;;
63016;SDS011;50274;45.640;11.756;2024-01-15T02:44:17;65.10;;;33.20;;
63016;SDS011;50274;45.640;11.756;2024-01-15T02:46:43;58.10;;;31.63;;
63016;SDS011;50274;45.640;11.756;2024-01-15T02:49:08;56.05;;;31.20;;
63016;SDS011;50274;45.640;11.756;2024-01-15T02:51:34;54.13;;;30.73;;
63016;SDS011;50274;45.640;11.756;2024-01-15T02:54:00;62.45;;;32.45;;
63016;SDS011;50274;45.640;11.756;2024-01-15T02:56:26;64.22;;;33.78;;
63016;SDS011;50274;45.640;11.756;2024-01-15T02:58:52;55.28;;;32.03;;
63016;SDS011;50274;45.640;11.756;2024-01-15T03:01:20;56.17;;;31.00;;
63016;SDS011;50274;45.640;11.756;2024-01-15T03:03:47;58.22;;;32.15;;
63016;SDS011;50274;45.640;11.756;2024-01-15T03:06:12;54.92;;;30.70;;
63016;SDS011;50274;45.640;11.756;2024-01-15T03:08:38;59.85;;;32.78;;
63016;SDS011;50274;45.640;11.756;2024-01-15T03:11:04;66.43;;;35.30;;
63016;SDS011;50274;45.640;11.756;2024-01-15T03:13:30;49.70;;;28.98;;
63016;SDS011;50274;45.640;11.756;2024-01-15T03:15:55;52.63;;;30.87;;
63016;SDS011;50274;45.640;11.756;2024-01-15T03:18:21;59.63;;;31.95;;
63016;SDS011;50274;45.640;11.756;2024-01-15T03:20:47;55.17;;;31.60;;
63016;SDS011;50274;45.640;11.756;2024-01-15T03:23:13;56.85;;;32.95;;
63016;SDS011;50274;45.640;11.756;2024-01-15T03:25:38;60.75;;;35.42;;
63016;SDS011;50274;45.640;11.756;2024-01-15T03:28:04;52.63;;;30.27;;
63016;SDS011;50274;45.640;11.756;2024-01-15T03:30:30;62.15;;;33.15;;
63016;SDS011;50274;45.640;11.756;2024-01-15T03:32:56;57.80;;;30.90;;
63016;SDS011;50274;45.640;11.756;2024-01-15T03:35:22;59.72;;;32.15;;
63016;SDS011;50274;45.640;11.756;2024-01-15T03:37:48;60.33;;;32.15;;
63016;SDS011;50274;45.640;11.756;2024-01-15T03:40:13;58.27;;;30.80;;
63016;SDS011;50274;45.640;11.756;2024-01-15T03:42:39;59.15;;;31.48;;
63016;SDS011;50274;45.640;11.756;2024-01-15T03:45:05;58.83;;;32.78;;
63016;SDS011;50274;45.640;11.756;2024-01-15T03:47:31;58.93;;;32.13;;
63016;SDS011;50274;45.640;11.756;2024-01-15T03:49:57;62.30;;;33.17;;
63016;SDS011;50274;45.640;11.756;2024-01-15T03:52:23;56.08;;;31.83;;
63016;SDS011;50274;45.640;11.756;2024-01-15T03:54:48;56.33;;;30.40;;
63016;SDS011;50274;45.640;11.756;2024-01-15T03:57:14;52.08;;;30.30;;
63016;SDS011;50274;45.640;11.756;2024-01-15T03:59:40;57.37;;;30.33;;
63016;SDS011;50274;45.640;11.756;2024-01-15T04:02:06;59.15;;;32.17;;
63016;SDS011;50274;45.640;11.756;2024-01-15T04:04:32;63.60;;;33.58;;
63016;SDS011;50274;45.640;11.756;2024-01-15T04:06:58;55.93;;;31.20;;
63016;SDS011;50274;45.640;11.756;2024-01-15T04:09:24;54.95;;;31.50;;
63016;SDS011;50274;45.640;11.756;2024-01-15T04:11:50;62.57;;;34.97;;
63016;SDS011;50274;45.640;11.756;2024-01-15T04:14:15;63.83;;;34.70;;
63016;SDS011;50274;45.640;11.756;2024-01-15T04:16:41;59.70;;;32.90;;
63016;SDS011;50274;45.640;11.756;2024-01-15T04:19:07;62.27;;;33.40;;
63016;SDS011;50274;45.640;11.756;2024-01-15T04:21:33;63.33;;;33.42;;
63016;SDS011;50274;45.640;11.756;2024-01-15T04:23:59;56.53;;;31.73;;
63016;SDS011;50274;45.640;11.756;2024-01-15T04:26:24;58.55;;;32.90;;
63016;SDS011;50274;45.640;11.756;2024-01-15T04:28:50;56.15;;;32.55;;
63016;SDS011;50274;45.640;11.756;2024-01-15T04:31:23;54.87;;;30.90;;
63016;SDS011;50274;45.640;11.756;2024-01-15T04:33:49;60.75;;;33.33;;
63016;SDS011;50274;45.640;11.756;2024-01-15T04:36:15;56.78;;;30.80;;
63016;SDS011;50274;45.640;11.756;2024-01-15T04:38:41;53.33;;;30.67;;
63016;SDS011;50274;45.640;11.756;2024-01-15T04:41:10;61.47;;;32.50;;
63016;SDS011;50274;45.640;11.756;2024-01-15T04:43:39;57.33;;;32.13;;
63016;SDS011;50274;45.640;11.756;2024-01-15T04:46:08;54.57;;;31.43;;
63016;SDS011;50274;45.640;11.756;2024-01-15T04:48:34;50.22;;;30.30;;
63016;SDS011;50274;45.640;11.756;2024-01-15T04:51:00;55.45;;;32.97;;
63016;SDS011;50274;45.640;11.756;2024-01-15T04:53:30;57.67;;;31.63;;
63016;SDS011;50274;45.640;11.756;2024-01-15T04:55:55;57.15;;;30.90;;
63016;SDS011;50274;45.640;11.756;2024-01-15T04:58:21;57.73;;;29.40;;
63016;SDS011;50274;45.640;11.756;2024-01-15T05:00:51;61.30;;;32.05;;
63016;SDS011;50274;45.640;11.756;2024-01-15T05:03:17;59.38;;;31.08;;
63016;SDS011;50274;45.640;11.756;2024-01-15T05:05:42;53.28;;;30.67;;
63016;SDS011;50274;45.640;11.756;2024-01-15T05:08:08;49.75;;;27.55;;
63016;SDS011;50274;45.640;11.756;2024-01-15T05:10:34;51.22;;;29.23;;
63016;SDS011;50274;45.640;11.756;2024-01-15T05:13:00;59.42;;;30.55;;
63016;SDS011;50274;45.640;11.756;2024-01-15T05:15:26;57.35;;;32.03;;
63016;SDS011;50274;45.640;11.756;2024-01-15T05:17:52;59.60;;;31.57;;
63016;SDS011;50274;45.640;11.756;2024-01-15T05:20:18;55.22;;;29.38;;
63016;SDS011;50274;45.640;11.756;2024-01-15T05:22:44;61.42;;;32.88;;
63016;SDS011;50274;45.640;11.756;2024-01-15T05:25:10;53.17;;;29.08;;
63016;SDS011;50274;45.640;11.756;2024-01-15T05:27:36;58.73;;;31.73;;
63016;SDS011;50274;45.640;11.756;2024-01-15T05:30:03;57.85;;;31.67;;
63016;SDS011;50274;45.640;11.756;2024-01-15T05:32:29;51.00;;;29.80;;
63016;SDS011;50274;45.640;11.756;2024-01-15T05:34:55;55.40;;;31.73;;
63016;SDS011;50274;45.640;11.756;2024-01-15T05:37:21;53.58;;;30.38;;
63016;SDS011;50274;45.640;11.756;2024-01-15T05:39:47;49.03;;;29.10;;
63016;SDS011;50274;45.640;11.756;2024-01-15T05:42:13;55.30;;;30.73;;
63016;SDS011;50274;45.640;11.756;2024-01-15T05:44:38;58.20;;;33.13;;
63016;SDS011;50274;45.640;11.756;2024-01-15T05:47:04;56.05;;;30.30;;
63016;SDS011;50274;45.640;11.756;2024-01-15T05:49:30;53.20;;;29.23;;
63016;SDS011;50274;45.640;11.756;2024-01-15T05:51:56;53.70;;;28.97;;
63016;SDS011;50274;45.640;11.756;2024-01-15T05:54:22;58.28;;;31.30;;
63016;SDS011;50274;45.640;11.756;2024-01-15T05:56:48;57.25;;;29.50;;
63016;SDS011;50274;45.640;11.756;2024-01-15T05:59:13;52.13;;;28.03;;
63016;SDS011;50274;45.640;11.756;2024-01-15T06:01:39;50.85;;;27.90;;
63016;SDS011;50274;45.640;11.756;2024-01-15T06:04:05;50.60;;;28.07;;
63016;SDS011;50274;45.640;11.756;2024-01-15T06:06:31;49.67;;;26.33;;
63016;SDS011;50274;45.640;11.756;2024-01-15T06:08:57;50.58;;;27.42;;
63016;SDS011;50274;45.640;11.756;2024-01-15T06:11:33;54.33;;;27.52;;
63016;SDS011;50274;45.640;11.756;2024-01-15T06:13:59;54.85;;;29.10;;
63016;SDS011;50274;45.640;11.756;2024-01-15T06:16:28;50.88;;;24.58;;
63016;SDS011;50274;45.640;11.756;2024-01-15T06:18:54;47.70;;;26.60;;
63016;SDS011;50274;45.640;11.756;2024-01-15T06:21:20;45.92;;;25.75;;
63016;SDS011;50274;45.640;11.756;2024-01-15T06:23:46;45.33;;;24.63;;
63016;SDS011;50274;45.640;11.756;2024-01-15T06:26:12;47.90;;;25.83;;
63016;SDS011;50274;45.640;11.756;2024-01-15T06:28:38;47.47;;;24.10;;
63016;SDS011;50274;45.640;11.756;2024-01-15T06:31:04;46.92;;;25.58;;
63016;SDS011;50274;45.640;11.756;2024-01-15T06:33:32;48.15;;;24.58;;
63016;SDS011;50274;45.640;11.756;2024-01-15T06:35:57;49.60;;;26.10;;
63016;SDS011;50274;45.640;11.756;2024-01-15T06:38:23;49.42;;;25.52;;
63016;SDS011;50274;45.640;11.756;2024-01-15T06:40:50;65.72;;;28.08;;
63016;SDS011;50274;45.640;11.756;2024-01-15T06:43:17;56.75;;;26.77;;
63016;SDS011;50274;45.640;11.756;2024-01-15T06:45:43;57.03;;;26.83;;
63016;SDS011;50274;45.640;11.756;2024-01-15T06:48:09;51.00;;;25.27;;
63016;SDS011;50274;45.640;11.756;2024-01-15T06:50:37;46.72;;;24.67;;
63016;SDS011;50274;45.640;11.756;2024-01-15T06:53:03;45.70;;;23.52;;
63016;SDS011;50274;45.640;11.756;2024-01-15T06:55:29;46.28;;;24.33;;
63016;SDS011;50274;45.640;11.756;2024-01-15T06:57:55;56.33;;;25.33;;
63016;SDS011;50274;45.640;11.756;2024-01-15T07:00:20;58.10;;;27.73;;
63016;SDS011;50274;45.640;11.756;2024-01-15T07:02:46;49.07;;;24.90;;
63016;SDS011;50274;45.640;11.756;2024-01-15T07:05:12;52.83;;;27.08;;
63016;SDS011;50274;45.640;11.756;2024-01-15T07:07:38;50.58;;;25.67;;
63016;SDS011;50274;45.640;11.756;2024-01-15T07:10:04;58.27;;;29.17;;
63016;SDS011;50274;45.640;11.756;2024-01-15T07:12:31;59.08;;;28.98;;
63016;SDS011;50274;45.640;11.756;2024-01-15T07:14:56;58.75;;;28.90;;
63016;SDS011;50274;45.640;11.756;2024-01-15T07:17:22;54.57;;;26.87;;
63016;SDS011;50274;45.640;11.756;2024-01-15T07:19:48;50.63;;;24.77;;
63016;SDS011;50274;45.640;11.756;2024-01-15T07:22:14;57.80;;;28.97;;
63016;SDS011;50274;45.640;11.756;2024-01-15T07:24:42;53.58;;;25.58;;
63016;SDS011;50274;45.640;11.756;2024-01-15T07:27:08;50.25;;;25.67;;
63016;SDS011;50274;45.640;11.756;2024-01-15T07:29:34;57.22;;;27.63;;
63016;SDS011;50274;45.640;11.756;2024-01-15T07:32:03;54.60;;;25.83;;
63016;SDS011;50274;45.640;11.756;2024-01-15T07:34:30;49.70;;;23.80;;
63016;SDS011;50274;45.640;11.756;2024-01-15T07:36:56;52.00;;;24.55;;
63016;SDS011;50274;45.640;11.756;2024-01-15T07:39:22;51.20;;;27.27;;
63016;SDS011;50274;45.640;11.756;2024-01-15T07:41:50;52.75;;;25.95;;
63016;SDS011;50274;45.640;11.756;2024-01-15T07:44:16;57.90;;;30.35;;
63016;SDS011;50274;45.640;11.756;2024-01-15T07:46:48;57.15;;;29.65;;
63016;SDS011;50274;45.640;11.756;2024-01-15T07:49:14;59.85;;;29.30;;
63016;SDS011;50274;45.640;11.756;2024-01-15T07:51:40;61.92;;;30.67;;
63016;SDS011;50274;45.640;11.756;2024-01-15T07:54:06;57.90;;;30.20;;
63016;SDS011;50274;45.640;11.756;2024-01-15T07:56:32;61.77;;;28.87;;
63016;SDS011;50274;45.640;11.756;2024-01-15T07:58:58;52.20;;;29.50;;
63016;SDS011;50274;45.640;11.756;2024-01-15T08:01:24;58.40;;;29.23;;
63016;SDS011;50274;45.640;11.756;2024-01-15T08:03:50;55.38;;;29.85;;
63016;SDS011;50274;45.640;11.756;2024-01-15T08:06:17;53.35;;;27.92;;
63016;SDS011;50274;45.640;11.756;2024-01-15T08:08:43;53.67;;;25.90;;
63016;SDS011;50274;45.640;11.756;2024-01-15T08:11:09;55.20;;;29.17;;
63016;SDS011;50274;45.640;11.756;2024-01-15T08:13:34;50.67;;;28.17;;
63016;SDS011;50274;45.640;11.756;2024-01-15T08:16:00;56.70;;;28.70;;
63016;SDS011;50274;45.640;11.756;2024-01-15T08:18:27;63.63;;;30.67;;
63016;SDS011;50274;45.640;11.756;2024-01-15T08:20:53;55.03;;;28.23;;
63016;SDS011;50274;45.640;11.756;2024-01-15T08:23:19;59.37;;;29.63;;
63016;SDS011;50274;45.640;11.756;2024-01-15T08:25:45;59.47;;;29.40;;
63016;SDS011;50274;45.640;11.756;2024-01-15T08:28:10;57.70;;;27.90;;
63016;SDS011;50274;45.640;11.756;2024-01-15T08:30:36;48.37;;;24.87;;
63016;SDS011;50274;45.640;11.756;2024-01-15T08:33:02;52.50;;;26.65;;
63016;SDS011;50274;45.640;11.756;2024-01-15T08:35:28;51.50;;;24.55;;
63016;SDS011;50274;45.640;11.756;2024-01-15T08:37:54;49.47;;;25.33;;
63016;SDS011;50274;45.640;11.756;2024-01-15T08:40:20;49.60;;;26.13;;
63016;SDS011;50274;45.640;11.756;2024-01-15T08:42:46;48.08;;;25.00;;
63016;SDS011;50274;45.640;11.756;2024-01-15T08:45:11;56.60;;;27.30;;
63016;SDS011;50274;45.640;11.756;2024-01-15T08:47:37;51.25;;;25.48;;
63016;SDS011;50274;45.640;11.756;2024-01-15T08:50:03;53.60;;;27.67;;
63016;SDS011;50274;45.640;11.756;2024-01-15T08:52:30;55.28;;;27.15;;
63016;SDS011;50274;45.640;11.756;2024-01-15T08:54:57;58.78;;;28.10;;
63016;SDS011;50274;45.640;11.756;2024-01-15T08:57:22;50.63;;;26.90;;
63016;SDS011;50274;45.640;11.756;2024-01-15T08:59:48;49.33;;;28.10;;
63016;SDS011;50274;45.640;11.756;2024-01-15T09:02:14;55.83;;;29.02;;
63016;SDS011;50274;45.640;11.756;2024-01-15T09:04:40;57.28;;;28.95;;
63016;SDS011;50274;45.640;11.756;2024-01-15T09:07:07;62.88;;;34.28;;
63016;SDS011;50274;45.640;11.756;2024-01-15T09:09:33;65.78;;;32.97;;
63016;SDS011;50274;45.640;11.756;2024-01-15T09:12:00;64.13;;;32.97;;
63016;SDS011;50274;45.640;11.756;2024-01-15T09:14:26;63.28;;;35.40;;
63016;SDS011;50274;45.640;11.756;2024-01-15T09:16:52;69.15;;;36.22;;
63016;SDS011;50274;45.640;11.756;2024-01-15T09:19:18;67.40;;;35.17;;
63016;SDS011;50274;45.640;11.756;2024-01-15T09:21:44;73.07;;;34.35;;
63016;SDS011;50274;45.640;11.756;2024-01-15T09:24:10;62.50;;;33.47;;
63016;SDS011;50274;45.640;11.756;2024-01-15T09:26:36;66.15;;;32.28;;
63016;SDS011;50274;45.640;11.756;2024-01-15T09:29:02;62.43;;;32.47;;
63016;SDS011;50274;45.640;11.756;2024-01-15T09:31:28;70.38;;;34.80;;
63016;SDS011;50274;45.640;11.756;2024-01-15T09:33:54;59.88;;;31.10;;
63016;SDS011;50274;45.640;11.756;2024-01-15T09:36:22;53.57;;;30.07;;
63016;SDS011;50274;45.640;11.756;2024-01-15T09:38:48;62.65;;;32.13;;
63016;SDS011;50274;45.640;11.756;2024-01-15T09:41:14;61.22;;;32.00;;
63016;SDS011;50274;45.640;11.756;2024-01-15T09:43:40;55.70;;;31.33;;
63016;SDS011;50274;45.640;11.756;2024-01-15T09:46:06;59.03;;;32.20;;
63016;SDS011;50274;45.640;11.756;2024-01-15T09:48:33;65.37;;;34.63;;
63016;SDS011;50274;45.640;11.756;2024-01-15T09:51:01;66.90;;;34.05;;
63016;SDS011;50274;45.640;11.756;2024-01-15T09:53:27;61.00;;;33.92;;
63016;SDS011;50274;45.640;11.756;2024-01-15T09:55:54;64.55;;;33.55;;
63016;SDS011;50274;45.640;11.756;2024-01-15T09:58:21;61.10;;;33.38;;
63016;SDS011;50274;45.640;11.756;2024-01-15T10:00:47;62.80;;;32.37;;
63016;SDS011;50274;45.640;11.756;2024-01-15T10:03:15;66.03;;;32.83;;
63016;SDS011;50274;45.640;11.756;2024-01-15T10:05:41;62.45;;;33.17;;
63016;SDS011;50274;45.640;11.756;2024-01-15T10:08:08;61.53;;;32.00;;
63016;SDS011;50274;45.640;11.756;2024-01-15T10:10:35;61.53;;;32.10;;
63016;SDS011;50274;45.640;11.756;2024-01-15T10:13:03;58.50;;;32.05;;
63016;SDS011;50274;45.640;11.756;2024-01-15T10:15:34;58.47;;;31.63;;
63016;SDS011;50274;45.640;11.756;2024-01-15T10:18:03;52.30;;;30.05;;
63016;SDS011;50274;45.640;11.756;2024-01-15T10:20:31;54.60;;;30.73;;
63016;SDS011;50274;45.640;11.756;2024-01-15T10:22:58;57.38;;;29.42;;
63016;SDS011;50274;45.640;11.756;2024-01-15T10:25:24;54.88;;;30.45;;
63016;SDS011;50274;45.640;11.756;2024-01-15T10:28:00;57.22;;;30.35;;
63016;SDS011;50274;45.640;11.756;2024-01-15T10:30:28;58.33;;;30.98;;
63016;SDS011;50274;45.640;11.756;2024-01-15T10:33:03;72.90;;;36.87;;
63016;SDS011;50274;45.640;11.756;2024-01-15T10:35:30;69.57;;;36.92;;
63016;SDS011;50274;45.640;11.756;2024-01-15T10:38:00;68.28;;;35.83;;
63016;SDS011;50274;45.640;11.756;2024-01-15T10:40:26;68.45;;;35.67;;
63016;SDS011;50274;45.640;11.756;2024-01-15T10:42:52;68.32;;;35.92;;
63016;SDS011;50274;45.640;11.756;2024-01-15T10:45:19;69.77;;;35.50;;
63016;SDS011;50274;45.640;11.756;2024-01-15T10:47:44;58.78;;;32.20;;
63016;SDS011;50274;45.640;11.756;2024-01-15T10:50:11;58.83;;;32.65;;
63016;SDS011;50274;45.640;11.756;2024-01-15T10:52:37;58.83;;;33.75;;
63016;SDS011;50274;45.640;11.756;2024-01-15T10:55:10;54.25;;;30.90;;
63016;SDS011;50274;45.640;11.756;2024-01-15T10:57:37;55.10;;;31.67;;
63016;SDS011;50274;45.640;11.756;2024-01-15T11:00:06;51.83;;;31.25;;
63016;SDS011;50274;45.640;11.756;2024-01-15T11:02:34;58.00;;;32.17;;
63016;SDS011;50274;45.640;11.756;2024-01-15T11:05:02;53.13;;;30.77;;
63016;SDS011;50274;45.640;11.756;2024-01-15T11:07:30;54.65;;;30.30;;
63016;SDS011;50274;45.640;11.756;2024-01-15T11:09:56;63.93;;;33.67;;
63016;SDS011;50274;45.640;11.756;2024-01-15T11:12:25;56.55;;;33.25;;
63016;SDS011;50274;45.640;11.756;2024-01-15T11:14:51;58.13;;;33.50;;
63016;SDS011;50274;45.640;11.756;2024-01-15T11:17:19;60.90;;;34.22;;
63016;SDS011;50274;45.640;11.756;2024-01-15T11:19:46;57.67;;;33.97;;
63016;SDS011;50274;45.640;11.756;2024-01-15T11:24:56;54.65;;;31.27;;
63016;SDS011;50274;45.640;11.756;2024-01-15T11:30:18;54.70;;;31.90;;
63016;SDS011;50274;45.640;11.756;2024-01-15T11:32:47;53.57;;;30.17;;
63016;SDS011;50274;45.640;11.756;2024-01-15T11:35:13;54.17;;;32.30;;
63016;SDS011;50274;45.640;11.756;2024-01-15T11:40:21;55.75;;;32.17;;
63016;SDS011;50274;45.640;11.756;2024-01-15T11:42:49;55.03;;;32.37;;
63016;SDS011;50274;45.640;11.756;2024-01-15T11:45:18;54.97;;;33.00;;
63016;SDS011;50274;45.640;11.756;2024-01-15T11:50:49;50.20;;;28.52;;
63016;SDS011;50274;45.640;11.756;2024-01-15T11:56:17;53.70;;;29.50;;
63016;SDS011;50274;45.640;11.756;2024-01-15T11:58:46;58.20;;;32.47;;
63016;SDS011;50274;45.640;11.756;2024-01-15T12:01:12;51.28;;;30.38;;
63016;SDS011;50274;45.640;11.756;2024-01-15T12:03:38;55.13;;;30.95;;
63016;SDS011;50274;45.640;11.756;2024-01-15T12:06:08;57.43;;;32.33;;
63016;SDS011;50274;45.640;11.756;2024-01-15T12:08:35;59.22;;;30.90;;
63016;SDS011;50274;45.640;11.756;2024-01-15T12:11:03;49.35;;;30.20;;
63016;SDS011;50274;45.640;11.756;2024-01-15T12:13:36;51.55;;;31.40;;
63016;SDS011;50274;45.640;11.756;2024-01-15T12:16:02;54.33;;;31.67;;
63016;SDS011;50274;45.640;11.756;2024-01-15T12:18:29;57.25;;;31.38;;
63016;SDS011;50274;45.640;11.756;2024-01-15T12:20:55;57.22;;;32.70;;
63016;SDS011;50274;45.640;11.756;2024-01-15T12:23:20;56.43;;;33.10;;
63016;SDS011;50274;45.640;11.756;2024-01-15T12:25:46;54.88;;;34.92;;
63016;SDS011;50274;45.640;11.756;2024-01-15T12:28:12;58.55;;;34.83;;
63016;SDS011;50274;45.640;11.756;2024-01-15T12:30:39;55.83;;;33.30;;
63016;SDS011;50274;45.640;11.756;2024-01-15T12:33:06;55.65;;;33.05;;
63016;SDS011;50274;45.640;11.756;2024-01-15T12:35:33;56.35;;;34.67;;
63016;SDS011;50274;45.640;11.756;2024-01-15T12:38:00;52.58;;;31.38;;
63016;SDS011;50274;45.640;11.756;2024-01-15T12:40:30;55.40;;;32.90;;
63016;SDS011;50274;45.640;11.756;2024-01-15T12:42:58;54.42;;;32.17;;
63016;SDS011;50274;45.640;11.756;2024-01-15T12:45:24;56.17;;;32.28;;
63016;SDS011;50274;45.640;11.756;2024-01-15T12:47:50;57.80;;;33.60;;
63016;SDS011;50274;45.640;11.756;2024-01-15T12:50:16;49.97;;;31.52;;
63016;SDS011;50274;45.640;11.756;2024-01-15T12:52:42;53.33;;;30.43;;
63016;SDS011;50274;45.640;11.756;2024-01-15T12:55:09;51.00;;;31.95;;
63016;SDS011;50274;45.640;11.756;2024-01-15T12:57:35;53.78;;;32.40;;
63016;SDS011;50274;45.640;11.756;2024-01-15T13:00:02;56.45;;;32.47;;
63016;SDS011;50274;45.640;11.756;2024-01-15T13:02:36;52.73;;;29.93;;
63016;SDS011;50274;45.640;11.756;2024-01-15T13:05:03;50.15;;;30.45;;
63016;SDS011;50274;45.640;11.756;2024-01-15T13:07:29;42.33;;;26.40;;
63016;SDS011;50274;45.640;11.756;2024-01-15T13:09:55;47.80;;;29.02;;
63016;SDS011;50274;45.640;11.756;2024-01-15T13:12:21;50.43;;;30.50;;
63016;SDS011;50274;45.640;11.756;2024-01-15T13:14:47;50.85;;;31.73;;
63016;SDS011;50274;45.640;11.756;2024-01-15T13:17:13;52.28;;;32.03;;
63016;SDS011;50274;45.640;11.756;2024-01-15T13:19:42;51.95;;;32.22;;
63016;SDS011;50274;45.640;11.756;2024-01-15T13:22:08;46.47;;;28.73;;
63016;SDS011;50274;45.640;11.756;2024-01-15T13:24:34;47.45;;;30.30;;
63016;SDS011;50274;45.640;11.756;2024-01-15T13:27:02;49.03;;;29.80;;
63016;SDS011;50274;45.640;11.756;2024-01-15T13:29:29;47.10;;;29.55;;
63016;SDS011;50274;45.640;11.756;2024-01-15T13:31:55;47.47;;;28.00;;
63016;SDS011;50274;45.640;11.756;2024-01-15T13:34:22;61.83;;;37.13;;
63016;SDS011;50274;45.640;11.756;2024-01-15T13:36:48;52.45;;;32.63;;
63016;SDS011;50274;45.640;11.756;2024-01-15T13:39:15;47.83;;;30.35;;
63016;SDS011;50274;45.640;11.756;2024-01-15T13:41:45;56.40;;;35.00;;
63016;SDS011;50274;45.640;11.756;2024-01-15T13:44:14;55.17;;;32.78;;
63016;SDS011;50274;45.640;11.756;2024-01-15T13:46:40;50.75;;;30.80;;
63016;SDS011;50274;45.640;11.756;2024-01-15T13:49:06;52.17;;;30.88;;
63016;SDS011;50274;45.640;11.756;2024-01-15T13:51:34;52.43;;;31.73;;
63016;SDS011;50274;45.640;11.756;2024-01-15T13:54:01;52.58;;;31.55;;
63016;SDS011;50274;45.640;11.756;2024-01-15T13:56:29;57.28;;;32.63;;
63016;SDS011;50274;45.640;11.756;2024-01-15T13:58:57;57.72;;;33.22;;
63016;SDS011;50274;45.640;11.756;2024-01-15T14:01:24;51.75;;;31.00;;
63016;SDS011;50274;45.640;11.756;2024-01-15T14:03:52;53.23;;;32.50;;
63016;SDS011;50274;45.640;11.756;2024-01-15T14:06:21;52.65;;;32.17;;
63016;SDS011;50274;45.640;11.756;2024-01-15T14:08:47;50.50;;;31.33;;
63016;SDS011;50274;45.640;11.756;2024-01-15T14:11:13;53.65;;;31.13;;
63016;SDS011;50274;45.640;11.756;2024-01-15T14:13:39;58.73;;;33.17;;
63016;SDS011;50274;45.640;11.756;2024-01-15T14:16:05;54.08;;;33.08;;
63016;SDS011;50274;45.640;11.756;2024-01-15T14:18:31;54.05;;;31.05;;